Time;durP1;ratioP1;P1;durP2;ratioP2;P2;SDS_P1;SDS_P2;PMS_P1;PMS_P2;Temp;Humidity;BMP_temperature;BMP_pressure;BME280_temperature;BME280_humidity;BME280_pressure;Samples;Min_cycle;Max_cycle;Signal;HPM_P1;HPM_P2
2022/12/27 00:00:46;;;;;;;558.23;517.33;;;6.60;30.30;;;;;;5114638;28;20511;-70
2022/12/27 00:03:12;;;;;;;762.67;703.07;;;6.50;29.30;;;;;;5115454;28;20175;-70
2022/12/27 00:05:42;;;;;;;458.70;424.93;;;6.40;29.50;;;;;;5115861;28;20181;-71
2022/12/27 00:08:07;;;;;;;572.43;528.97;;;6.30;29.20;;;;;;5116244;28;20519;-70
2022/12/27 00:10:33;;;;;;;548.73;512.50;;;6.20;29.10;;;;;;5115548;28;20463;-70
2022/12/27 00:12:58;;;;;;;525.60;487.37;;;6.10;29.00;;;;;;5114177;28;20177;-70
2022/12/27 00:15:24;;;;;;;510.40;478.90;;;6.00;28.90;;;;;;5115691;28;20177;-70
2022/12/27 00:17:49;;;;;;;319.17;299.17;;;6.10;27.90;;;;;;5115565;28;20176;-71
2022/12/27 00:20:15;;;;;;;686.77;637.90;;;6.20;27.40;;;;;;5114250;28;20200;-70
2022/12/27 00:22:40;;;;;;;390.90;363.47;;;6.20;27.20;;;;;;5115407;28;20638;-71
2022/12/27 00:25:07;;;;;;;504.73;469.40;;;6.20;25.90;;;;;;5115635;28;20173;-70
2022/12/27 00:27:32;;;;;;;295.07;274.63;;;6.10;26.20;;;;;;5115582;28;20177;-71
2022/12/27 00:29:58;;;;;;;471.87;438.40;;;6.10;26.30;;;;;;5113988;28;20434;-70
2022/12/27 00:32:23;;;;;;;657.20;608.70;;;6.00;26.00;;;;;;5114995;28;20184;-71
2022/12/27 00:34:49;;;;;;;497.90;464.90;;;6.00;26.20;;;;;;5115440;28;20548;-70
2022/12/27 00:37:14;;;;;;;595.57;555.17;;;6.10;26.90;;;;;;5115357;28;20184;-70
2022/12/27 00:39:40;;;;;;;686.50;636.53;;;6.10;27.40;;;;;;5113951;28;20208;-69
2022/12/27 00:42:05;;;;;;;599.03;559.83;;;6.10;27.70;;;;;;5114820;28;20200;-71
2022/12/27 00:44:31;;;;;;;825.33;765.70;;;6.10;27.70;;;;;;5115156;28;20260;-71
2022/12/27 00:46:56;;;;;;;208.63;192.87;;;6.10;28.20;;;;;;5115043;28;20211;-70
2022/12/27 00:49:22;;;;;;;391.67;361.10;;;6.20;29.70;;;;;;5114888;28;20263;-70
2022/12/27 00:51:47;;;;;;;656.17;608.83;;;6.10;29.10;;;;;;5114977;28;20259;-71
2022/12/27 00:54:13;;;;;;;546.43;509.50;;;6.10;29.00;;;;;;5115722;28;20666;-71
2022/12/27 00:56:38;;;;;;;602.07;561.83;;;6.00;29.20;;;;;;5115698;28;20183;-70
2022/12/27 00:59:04;;;;;;;458.77;425.73;;;6.10;29.50;;;;;;5115245;28;20199;-71
2022/12/27 01:01:34;;;;;;;488.93;453.00;;;6.00;29.90;;;;;;5114471;28;20192;-71
2022/12/27 01:04:00;;;;;;;718.10;666.13;;;6.00;29.90;;;;;;5114872;28;20215;-71
2022/12/27 01:06:28;;;;;;;420.90;389.20;;;6.00;30.00;;;;;;5114650;28;20453;-71
2022/12/27 01:08:55;;;;;;;530.30;498.27;;;5.90;30.40;;;;;;5114629;28;20402;-71
2022/12/27 01:11:21;;;;;;;705.10;655.20;;;5.70;29.90;;;;;;5114436;28;20430;-71
2022/12/27 01:13:47;;;;;;;606.40;570.13;;;5.60;30.20;;;;;;5114396;28;20429;-71
2022/12/27 01:16:16;;;;;;;638.87;594.80;;;5.40;30.70;;;;;;5114527;28;20251;-71
2022/12/27 01:18:42;;;;;;;703.67;654.70;;;5.40;29.90;;;;;;5114413;28;20416;-70
2022/12/27 01:21:11;;;;;;;581.90;541.47;;;5.20;30.50;;;;;;5114233;28;20468;-71
2022/12/27 01:23:38;;;;;;;557.00;516.53;;;5.20;30.80;;;;;;5114064;28;20441;-70
2022/12/27 01:26:07;;;;;;;658.87;614.20;;;5.10;32.00;;;;;;5112828;28;20418;-71
2022/12/27 01:28:33;;;;;;;639.27;595.00;;;5.00;32.00;;;;;;5114286;28;20401;-70
2022/12/27 01:31:07;;;;;;;651.40;603.07;;;5.00;33.00;;;;;;5114186;28;20517;-71
2022/12/27 01:33:33;;;;;;;683.43;635.57;;;4.90;32.90;;;;;;5113904;28;20425;-70
2022/12/27 01:36:14;;;;;;;641.63;596.77;;;4.80;32.80;;;;;;5114154;28;20399;-71
2022/12/27 01:38:42;;;;;;;610.45;568.28;;;4.70;33.30;;;;;;5114001;28;20172;-70
2022/12/27 01:44:32;;;;;;;393.33;368.87;;;4.60;34.10;;;;;;5114255;28;20454;-71
2022/12/27 01:46:58;;;;;;;532.40;498.13;;;4.60;33.60;;;;;;5113984;28;20757;-71
2022/12/27 01:49:24;;;;;;;670.37;623.33;;;4.60;34.70;;;;;;5113666;28;20436;-70
2022/12/27 01:51:49;;;;;;;570.93;530.57;;;4.60;34.20;;;;;;5113228;28;20457;-71
2022/12/27 01:54:15;;;;;;;720.30;667.63;;;4.50;34.20;;;;;;5113718;28;20179;-71
2022/12/27 01:56:40;;;;;;;648.27;601.67;;;4.40;34.80;;;;;;5113637;28;20179;-70
2022/12/27 01:59:08;;;;;;;610.63;568.27;;;4.40;35.20;;;;;;5113654;28;20205;-70
2022/12/27 02:01:45;;;;;;;691.75;642.75;;;4.40;35.00;;;;;;5113335;28;20607;-71
2022/12/27 02:04:30;;;;;;;505.13;472.17;;;4.30;34.60;;;;;;5113481;28;20542;-70
2022/12/27 02:06:57;;;;;;;647.90;603.13;;;4.30;35.00;;;;;;5113799;28;20733;-71
2022/12/27 02:09:37;;;;;;;608.80;566.58;;;4.30;33.90;;;;;;5113279;28;20656;-70
2022/12/27 02:12:05;;;;;;;607.63;565.72;;;4.20;35.10;;;;;;5113083;28;20254;-70
2022/12/27 02:14:34;;;;;;;553.90;517.78;;;4.00;35.50;;;;;;5113277;28;20462;-71
2022/12/27 02:17:05;;;;;;;463.55;431.80;;;4.00;36.20;;;;;;5111914;28;20170;-71
2022/12/27 02:19:39;;;;;;;601.25;559.08;;;4.00;35.10;;;;;;5113183;28;20258;-71
2022/12/27 02:22:17;;;;;;;561.00;524.47;;;4.00;34.60;;;;;;5112870;28;20183;-70
2022/12/27 02:25:08;;;;;;;480.85;450.08;;;3.90;33.70;;;;;;5113240;28;20211;-71
2022/12/27 02:27:48;;;;;;;633.97;590.43;;;3.80;34.70;;;;;;5105666;28;20282;-74
2022/12/27 02:30:14;;;;;;;303.10;281.08;;;3.80;35.20;;;;;;5113000;28;20905;-72
2022/12/27 02:32:50;;;;;;;165.40;151.32;;;3.70;34.50;;;;;;5112579;28;20206;-71
2022/12/27 02:35:22;;;;;;;618.72;573.85;;;3.70;33.40;;;;;;5112977;28;20194;-71
2022/12/27 02:38:20;;;;;;;547.78;510.95;;;3.60;31.70;;;;;;5112888;28;20171;-71
2022/12/27 02:55:06;;;;;;;541.05;503.10;;;3.70;29.20;;;;;;5112648;28;20673;-71
2022/12/27 02:57:44;;;;;;;254.10;235.75;;;3.70;28.50;;;;;;5111508;28;20271;-71
2022/12/27 03:03:34;;;;;;;254.25;236.45;;;3.80;28.10;;;;;;5112326;28;20222;-71
2022/12/27 03:06:44;;;;;;;291.48;272.75;;;3.90;28.10;;;;;;5112556;28;20196;-71
2022/12/27 03:18:23;;;;;;;597.03;555.40;;;3.80;28.90;;;;;;5112518;28;20230;-72
2022/12/27 03:26:24;;;;;;;542.60;506.00;;;3.40;29.30;;;;;;5112361;28;20263;-71
2022/12/27 03:34:34;;;;;;;134.73;122.95;;;3.20;30.50;;;;;;5112328;28;20313;-71
2022/12/27 03:40:33;;;;;;;385.27;361.08;;;3.10;31.40;;;;;;5112086;28;20216;-71
2022/12/27 03:43:14;;;;;;;200.77;184.68;;;3.00;32.00;;;;;;5111931;28;20177;-71
2022/12/27 03:48:46;;;;;;;196.20;181.00;;;2.90;32.50;;;;;;5112159;28;20207;-70
2022/12/27 03:51:20;;;;;;;211.52;194.52;;;2.80;33.90;;;;;;5111867;28;20566;-71
2022/12/27 03:53:47;;;;;;;223.35;206.38;;;2.70;34.10;;;;;;5111913;28;20630;-70
2022/12/27 03:56:13;;;;;;;154.93;141.07;;;2.60;34.40;;;;;;5112333;28;20180;-71
2022/12/27 03:58:38;;;;;;;455.07;422.73;;;2.50;35.40;;;;;;5111878;28;20180;-71
2022/12/27 04:01:04;;;;;;;305.93;283.70;;;2.50;34.60;;;;;;5112186;28;20208;-71
2022/12/27 04:03:29;;;;;;;373.10;347.80;;;2.40;35.40;;;;;;5111701;28;20255;-71
2022/12/27 04:05:55;;;;;;;313.83;292.07;;;2.30;35.20;;;;;;5111967;28;20172;-71
2022/12/27 04:35:41;;;;;;;405.88;377.80;;;2.10;37.60;;;;;;5115565;28;20179;-70
2022/12/27 04:38:06;;;;;;;188.23;173.30;;;2.10;37.60;;;;;;5115694;28;20864;-71
2022/12/27 04:57:05;;;;;;;278.30;257.73;;;2.00;37.50;;;;;;5114924;28;20179;-71
2022/12/27 05:02:17;;;;;;;218.95;202.55;;;1.90;37.70;;;;;;5114797;28;20245;-71
2022/12/27 05:04:43;;;;;;;222.20;205.50;;;1.90;37.30;;;;;;5114773;28;20255;-71
2022/12/27 05:15:25;;;;;;;194.57;180.23;;;1.90;36.00;;;;;;5114706;28;20191;-71
2022/12/27 05:17:50;;;;;;;112.90;102.07;;;1.80;36.50;;;;;;5114456;28;20165;-71
2022/12/27 05:20:16;;;;;;;154.77;141.33;;;1.80;37.00;;;;;;5114454;28;20188;-71
2022/12/27 05:25:37;;;;;;;225.30;207.80;;;1.80;36.00;;;;;;5114185;28;20234;-71
2022/12/27 05:28:04;;;;;;;211.40;195.90;;;1.80;35.40;;;;;;5113074;28;20179;-71
2022/12/27 05:30:39;;;;;;;130.27;118.47;;;1.70;35.40;;;;;;5114158;28;20201;-71
2022/12/27 05:33:05;;;;;;;161.50;148.75;;;1.70;36.50;;;;;;5113865;28;20239;-71
2022/12/27 05:35:33;;;;;;;211.82;193.88;;;1.70;35.40;;;;;;5114396;28;20263;-71
2022/12/27 05:37:58;;;;;;;184.65;170.52;;;1.70;36.50;;;;;;5114156;28;20169;-71
2022/12/27 05:40:25;;;;;;;227.37;209.17;;;1.70;35.70;;;;;;5114421;28;20228;-71
2022/12/27 05:42:51;;;;;;;279.45;259.23;;;1.70;35.40;;;;;;5113619;28;20176;-71
2022/12/27 05:45:16;;;;;;;215.20;198.32;;;1.60;35.30;;;;;;5114106;28;20587;-70
2022/12/27 05:47:42;;;;;;;183.93;167.70;;;1.60;35.30;;;;;;5113954;28;20215;-70
2022/12/27 05:50:08;;;;;;;210.57;194.67;;;1.50;35.20;;;;;;5113894;28;20196;-71
2022/12/27 05:52:34;;;;;;;147.18;134.40;;;1.50;35.20;;;;;;5113607;28;20208;-71
2022/12/27 05:55:00;;;;;;;141.30;129.27;;;1.50;35.60;;;;;;5113872;28;20181;-71
2022/12/27 05:57:25;;;;;;;119.30;108.17;;;1.40;36.30;;;;;;5114299;28;20188;-71
2022/12/27 05:59:51;;;;;;;125.37;113.47;;;1.40;37.00;;;;;;5113616;28;20275;-71
2022/12/27 06:02:16;;;;;;;125.30;113.70;;;1.40;37.30;;;;;;5113490;28;20176;-71
2022/12/27 06:04:42;;;;;;;177.07;162.70;;;1.40;37.00;;;;;;5113829;28;20184;-71
2022/12/27 06:07:10;;;;;;;126.60;114.90;;;1.40;36.80;;;;;;5113633;28;20168;-71
2022/12/27 06:09:35;;;;;;;191.70;176.45;;;1.30;36.40;;;;;;5113796;28;20260;-71
2022/12/27 06:12:01;;;;;;;119.90;108.50;;;1.30;37.60;;;;;;5103065;28;20276;-70
2022/12/27 06:14:27;;;;;;;203.90;187.43;;;1.30;36.70;;;;;;5093055;28;20173;-70
2022/12/27 06:16:52;;;;;;;97.40;85.33;;;1.30;36.10;;;;;;5093045;28;20169;-70
2022/12/27 06:19:18;;;;;;;261.30;241.23;;;1.30;36.60;;;;;;5093082;28;20253;-70
2022/12/27 06:21:43;;;;;;;540.90;503.60;;;1.30;36.10;;;;;;5092658;28;20266;-70
2022/12/27 06:24:09;;;;;;;404.77;375.73;;;1.20;36.40;;;;;;5092880;28;20181;-70
2022/12/27 06:26:34;;;;;;;91.23;74.43;;;1.20;35.70;;;;;;5092808;28;20243;-70
2022/12/27 06:29:00;;;;;;;231.17;212.83;;;1.20;36.00;;;;;;5092802;28;20188;-70
2022/12/27 06:31:26;;;;;;;208.70;193.03;;;1.10;35.50;;;;;;5092858;28;20217;-70
2022/12/27 06:33:52;;;;;;;94.07;84.43;;;1.10;35.60;;;;;;5092864;28;20222;-70
2022/12/27 06:36:20;;;;;;;113.00;102.00;;;1.10;36.60;;;;;;5092917;28;20180;-70
2022/12/27 06:38:46;;;;;;;107.53;96.20;;;1.00;35.80;;;;;;5092937;28;20169;-69
2022/12/27 06:41:16;;;;;;;346.27;321.23;;;1.00;36.80;;;;;;5092545;28;20236;-70
2022/12/27 06:43:42;;;;;;;132.05;119.28;;;0.90;36.40;;;;;;5092445;28;20498;-70
2022/12/27 06:46:10;;;;;;;125.03;112.50;;;0.90;37.00;;;;;;5092757;28;20227;-71
2022/12/27 06:48:36;;;;;;;117.40;105.72;;;0.80;36.90;;;;;;5092664;28;20414;-71
2022/12/27 06:51:08;;;;;;;170.43;156.67;;;0.80;36.30;;;;;;5092871;28;20193;-71
2022/12/27 06:53:35;;;;;;;239.15;220.68;;;0.70;36.60;;;;;;5091460;28;20423;-71
2022/12/27 06:56:05;;;;;;;84.93;65.53;;;0.70;36.80;;;;;;5091957;28;20565;-71
2022/12/27 06:58:31;;;;;;;85.18;68.38;;;0.60;36.80;;;;;;5092401;28;20181;-71
2022/12/27 07:00:56;;;;;;;86.50;64.97;;;0.60;37.20;;;;;;5092037;28;20205;-71
2022/12/27 07:03:22;;;;;;;108.47;97.53;;;0.60;37.90;;;;;;5090776;28;20177;-71
2022/12/27 07:05:47;;;;;;;114.23;102.90;;;0.60;38.00;;;;;;5092893;28;20176;-71
2022/12/27 07:08:13;;;;;;;202.10;186.10;;;0.60;38.10;;;;;;5090177;28;20294;-71
2022/12/27 07:10:38;;;;;;;96.77;86.60;;;0.60;37.60;;;;;;5091663;28;20204;-71
2022/12/27 07:13:04;;;;;;;178.97;164.40;;;0.60;38.10;;;;;;5091432;28;20266;-71
2022/12/27 07:15:29;;;;;;;108.03;97.83;;;0.60;39.00;;;;;;5091867;28;20586;-71
2022/12/27 07:17:55;;;;;;;131.13;118.67;;;0.70;38.30;;;;;;5092430;28;20640;-71
2022/12/27 07:20:20;;;;;;;114.37;103.47;;;0.60;38.40;;;;;;5091846;28;20189;-71
2022/12/27 07:22:46;;;;;;;104.23;94.13;;;0.70;38.50;;;;;;5091398;28;20181;-71
2022/12/27 07:25:12;;;;;;;112.87;102.10;;;0.70;38.00;;;;;;5090055;28;20216;-71
2022/12/27 07:27:37;;;;;;;152.07;138.43;;;0.70;37.90;;;;;;5091371;28;20268;-72
2022/12/27 07:30:04;;;;;;;158.90;144.70;;;0.70;38.10;;;;;;5091698;28;20696;-71
2022/12/27 07:32:30;;;;;;;74.13;45.65;;;0.80;38.30;;;;;;5091561;28;20197;-71
2022/12/27 07:34:55;;;;;;;144.33;132.67;;;0.80;38.10;;;;;;5092110;28;20172;-71
2022/12/27 07:37:21;;;;;;;105.20;94.77;;;0.80;37.80;;;;;;5091904;28;20442;-71
2022/12/27 07:39:46;;;;;;;108.67;98.50;;;0.90;37.70;;;;;;5091967;28;20245;-71
2022/12/27 07:42:12;;;;;;;87.87;77.17;;;0.80;37.60;;;;;;5091659;28;20202;-70
2022/12/27 07:44:38;;;;;;;91.37;72.23;;;0.90;37.50;;;;;;5091766;28;20226;-70
2022/12/27 07:47:04;;;;;;;176.13;160.60;;;1.00;37.20;;;;;;5091623;28;20185;-70
2022/12/27 07:49:29;;;;;;;118.00;106.67;;;1.00;36.90;;;;;;5092131;28;20605;-70
2022/12/27 07:51:55;;;;;;;114.63;103.63;;;1.00;36.90;;;;;;5095300;28;20583;-69
2022/12/27 07:54:20;;;;;;;209.90;193.93;;;1.00;37.60;;;;;;5095887;28;20171;-67
2022/12/27 07:56:47;;;;;;;129.47;117.50;;;1.00;37.00;;;;;;5095928;28;20181;-70
2022/12/27 07:59:13;;;;;;;119.25;108.43;;;1.10;37.00;;;;;;5094327;28;20169;-70
2022/12/27 08:04:23;;;;;;;120.78;109.15;;;1.20;37.20;;;;;;5095379;28;20720;-70
2022/12/27 08:06:49;;;;;;;143.20;130.83;;;1.20;36.60;;;;;;5095523;28;20181;-70
2022/12/27 08:09:20;;;;;;;161.03;147.43;;;1.30;35.80;;;;;;5095736;28;20238;-70
2022/12/27 08:11:46;;;;;;;138.57;126.55;;;1.30;36.80;;;;;;5095291;28;20811;-70
2022/12/27 08:14:11;;;;;;;231.60;214.53;;;1.40;36.70;;;;;;5091190;28;20222;-76
2022/12/27 08:16:37;;;;;;;198.37;183.53;;;1.40;35.10;;;;;;5091119;28;20263;-71
2022/12/27 08:19:02;;;;;;;109.67;98.77;;;1.40;35.10;;;;;;5091541;28;20264;-70
2022/12/27 08:21:28;;;;;;;139.60;127.47;;;1.50;36.20;;;;;;5090761;28;20279;-72
2022/12/27 08:23:53;;;;;;;167.80;154.37;;;1.50;35.90;;;;;;5090136;28;20296;-75
2022/12/27 08:26:19;;;;;;;186.23;172.47;;;1.60;35.30;;;;;;5084335;28;20706;-69
2022/12/27 08:28:44;;;;;;;209.90;194.10;;;1.70;34.90;;;;;;5075529;28;20550;-69
2022/12/27 08:31:12;;;;;;;276.10;257.57;;;1.80;34.90;;;;;;5074702;28;20280;-69
2022/12/27 08:33:38;;;;;;;89.85;70.53;;;1.80;35.40;;;;;;5094470;28;20533;-69
2022/12/27 08:36:09;;;;;;;187.77;172.87;;;1.80;35.30;;;;;;5095302;28;20174;-69
2022/12/27 08:38:34;;;;;;;264.20;244.23;;;1.90;33.50;;;;;;5094293;28;20430;-70
2022/12/27 08:41:00;;;;;;;172.03;158.27;;;2.00;32.90;;;;;;5097091;28;20561;-69
2022/12/27 08:43:30;;;;;;;267.55;247.32;;;2.10;32.90;;;;;;5093499;28;20201;-71
2022/12/27 08:46:01;;;;;;;188.73;174.15;;;2.10;33.20;;;;;;5074666;28;20603;-72
2022/12/27 08:48:27;;;;;;;627.42;583.38;;;2.30;33.40;;;;;;5074540;28;20288;-69
2022/12/27 08:50:52;;;;;;;215.97;198.33;;;2.30;34.10;;;;;;5086501;28;20280;-69
2022/12/27 08:53:18;;;;;;;224.90;207.83;;;2.40;31.50;;;;;;5092747;28;20682;-70
2022/12/27 08:55:43;;;;;;;221.07;205.00;;;2.50;31.50;;;;;;5094063;28;20217;-71
2022/12/27 08:58:10;;;;;;;527.03;490.40;;;2.60;30.70;;;;;;5082789;28;20189;-71
2022/12/27 09:00:36;;;;;;;259.15;239.55;;;2.70;30.80;;;;;;5074365;28;20199;-70
2022/12/27 09:03:02;;;;;;;103.47;90.67;;;2.80;30.00;;;;;;5073588;28;20224;-71
2022/12/27 09:05:28;;;;;;;263.70;244.63;;;2.90;29.50;;;;;;5074352;28;20178;-70
2022/12/27 09:07:54;;;;;;;231.23;215.13;;;3.10;29.00;;;;;;5073859;28;20182;-70
2022/12/27 09:10:20;;;;;;;262.20;243.70;;;3.20;29.10;;;;;;5072622;28;20798;-71
2022/12/27 09:12:46;;;;;;;289.08;266.23;;;3.30;28.00;;;;;;5073677;28;20239;-70
2022/12/27 09:15:11;;;;;;;258.07;238.63;;;3.50;26.30;;;;;;5074219;28;20218;-70
2022/12/27 09:17:37;;;;;;;328.63;304.67;;;3.60;26.60;;;;;;5074015;28;20475;-70
2022/12/27 09:20:04;;;;;;;292.05;269.88;;;3.70;26.10;;;;;;5074026;28;20239;-70
2022/12/27 09:22:29;;;;;;;320.60;296.33;;;3.80;25.90;;;;;;5073655;28;20180;-70
2022/12/27 09:24:55;;;;;;;272.03;251.53;;;3.90;25.50;;;;;;5073929;28;20182;-71
2022/12/27 09:27:21;;;;;;;164.20;150.27;;;4.00;26.10;;;;;;5073826;28;20576;-70
2022/12/27 09:29:46;;;;;;;361.33;338.63;;;4.20;26.10;;;;;;5073689;28;20194;-71
2022/12/27 09:32:12;;;;;;;368.67;342.07;;;4.40;25.20;;;;;;5073386;28;20196;-71
2022/12/27 09:34:37;;;;;;;319.17;295.37;;;4.60;24.00;;;;;;5073683;28;20200;-71
2022/12/27 09:37:03;;;;;;;205.73;190.33;;;4.60;22.50;;;;;;5073709;28;20251;-71
2022/12/27 09:39:28;;;;;;;235.87;217.10;;;4.70;23.40;;;;;;5073308;28;20199;-71
2022/12/27 09:42:20;;;;;;;288.03;269.13;;;4.90;22.40;;;;;;5071858;28;20188;-71
2022/12/27 09:44:57;;;;;;;242.52;222.15;;;5.10;21.90;;;;;;5072196;28;20230;-71
2022/12/27 09:47:31;;;;;;;161.53;147.03;;;5.20;21.00;;;;;;5073498;28;20184;-71
2022/12/27 09:50:11;;;;;;;113.83;87.67;;;5.40;20.40;;;;;;5073236;28;20521;-71
2022/12/27 09:52:50;;;;;;;413.70;387.50;;;5.60;19.30;;;;;;5072999;28;20454;-71
2022/12/27 09:55:27;;;;;;;343.70;320.40;;;5.70;19.60;;;;;;5073255;28;20408;-71
2022/12/27 09:58:03;;;;;;;445.50;416.57;;;5.90;17.80;;;;;;5072005;28;20424;-71
2022/12/27 10:00:28;;;;;;;261.70;241.77;;;6.10;17.60;;;;;;5073068;28;20424;-71
2022/12/27 10:02:54;;;;;;;383.53;357.47;;;6.30;15.20;;;;;;5072880;28;20926;-71
2022/12/27 10:05:24;;;;;;;315.17;292.53;;;6.40;15.40;;;;;;5072935;28;20201;-70
2022/12/27 10:08:02;;;;;;;283.33;263.27;;;6.50;15.20;;;;;;5072943;28;20495;-71
2022/12/27 10:10:38;;;;;;;384.90;357.20;;;6.80;14.40;;;;;;5071576;28;20575;-71
2022/12/27 10:13:31;;;;;;;567.37;529.83;;;7.00;13.60;;;;;;5072368;28;20455;-71
2022/12/27 10:16:06;;;;;;;203.17;188.13;;;7.10;14.40;;;;;;5072853;28;20401;-71
2022/12/27 10:18:41;;;;;;;379.17;353.67;;;7.00;14.20;;;;;;5072684;28;20403;-71
2022/12/27 10:21:23;;;;;;;561.73;525.37;;;7.10;13.90;;;;;;5072619;28;20427;-71
2022/12/27 10:23:59;;;;;;;400.93;374.90;;;7.20;13.70;;;;;;5072377;28;20523;-71
2022/12/27 10:26:25;;;;;;;371.53;347.30;;;7.20;13.80;;;;;;5072707;28;20424;-71
2022/12/27 10:29:01;;;;;;;355.00;330.43;;;7.30;13.40;;;;;;5072619;28;20768;-71
2022/12/27 10:31:29;;;;;;;514.90;480.57;;;7.30;13.10;;;;;;5072563;28;20455;-71
2022/12/27 10:33:55;;;;;;;422.90;396.27;;;7.30;13.80;;;;;;5072472;28;20510;-71
2022/12/27 10:36:29;;;;;;;328.73;306.33;;;7.40;13.10;;;;;;5072534;28;20417;-71
2022/12/27 10:38:55;;;;;;;343.73;320.00;;;7.40;13.10;;;;;;5072522;28;21276;-70
2022/12/27 10:41:48;;;;;;;553.33;517.67;;;7.20;13.70;;;;;;5072206;28;20448;-71
2022/12/27 10:44:14;;;;;;;258.23;239.70;;;7.20;13.90;;;;;;5072302;28;20424;-71
2022/12/27 10:46:42;;;;;;;448.33;417.93;;;7.30;13.60;;;;;;5072146;28;20778;-71
2022/12/27 10:49:19;;;;;;;159.33;146.10;;;7.40;13.40;;;;;;5072905;28;20413;-71
2022/12/27 10:51:46;;;;;;;593.80;554.40;;;7.60;13.30;;;;;;5071984;28;20464;-71
2022/12/27 10:54:19;;;;;;;544.07;510.00;;;7.60;13.30;;;;;;5072220;28;20405;-71
2022/12/27 10:56:46;;;;;;;399.73;372.43;;;7.60;13.30;;;;;;5071970;28;20928;-71
2022/12/27 10:59:18;;;;;;;587.67;548.57;;;7.60;12.70;;;;;;5070824;28;20417;-70
2022/12/27 11:01:46;;;;;;;347.93;323.33;;;7.70;13.30;;;;;;5071725;28;20430;-70
2022/12/27 11:04:13;;;;;;;475.00;443.07;;;7.80;12.70;;;;;;5070854;28;20425;-71
2022/12/27 11:06:40;;;;;;;348.23;323.37;;;7.80;12.50;;;;;;5072080;28;20421;-71
2022/12/27 11:09:25;;;;;;;467.97;436.57;;;7.80;12.30;;;;;;5072063;28;20878;-70
2022/12/27 11:12:09;;;;;;;416.23;388.70;;;7.80;11.50;;;;;;5071492;28;20457;-70
2022/12/27 11:14:36;;;;;;;163.90;150.67;;;7.70;10.90;;;;;;5070669;28;20921;-70
2022/12/27 11:17:06;;;;;;;459.23;428.37;;;7.70;11.60;;;;;;5071917;28;20415;-70
2022/12/27 11:19:31;;;;;;;278.13;258.60;;;7.50;12.30;;;;;;5070710;28;20413;-70
2022/12/27 11:22:03;;;;;;;466.30;431.43;;;7.50;12.00;;;;;;5071604;28;20972;-70
2022/12/27 11:24:29;;;;;;;406.47;376.10;;;7.40;10.70;;;;;;5071336;28;20175;-71
2022/12/27 11:26:58;;;;;;;261.30;242.93;;;7.30;10.50;;;;;;5072171;28;20893;-70
2022/12/27 11:29:26;;;;;;;338.40;314.20;;;7.30;12.10;;;;;;5071963;28;20922;-71
2022/12/27 11:31:53;;;;;;;132.83;121.53;;;7.40;11.10;;;;;;5071523;28;20457;-70
2022/12/27 11:34:31;;;;;;;462.03;430.93;;;7.50;11.40;;;;;;5071720;28;20404;-70
2022/12/27 11:37:11;;;;;;;331.53;307.33;;;7.60;11.20;;;;;;5071673;28;20446;-71
2022/12/27 11:39:45;;;;;;;452.40;421.03;;;7.50;8.80;;;;;;5071837;28;20760;-70
2022/12/27 11:42:19;;;;;;;328.40;306.37;;;7.70;9.00;;;;;;5072055;28;20875;-72
2022/12/27 11:45:17;;;;;;;327.07;304.43;;;7.70;10.30;;;;;;5071758;28;20417;-71
2022/12/27 11:48:10;;;;;;;342.73;319.13;;;7.70;9.00;;;;;;5071572;28;20464;-71
2022/12/27 11:50:50;;;;;;;291.37;270.93;;;7.80;9.00;;;;;;5071536;28;20431;-71
2022/12/27 11:53:51;;;;;;;290.07;269.80;;;8.00;9.10;;;;;;5071717;28;20466;-72
2022/12/27 11:56:25;;;;;;;194.43;179.77;;;8.10;9.30;;;;;;5071502;28;20426;-71
2022/12/27 11:59:00;;;;;;;343.07;319.77;;;7.80;9.00;;;;;;5071721;28;20401;-71
2022/12/27 12:01:47;;;;;;;501.27;466.70;;;7.80;9.00;;;;;;5071287;28;20636;-72
2022/12/27 12:04:25;;;;;;;409.73;380.90;;;7.80;8.40;;;;;;5071473;28;20409;-71
2022/12/27 12:07:15;;;;;;;266.83;246.70;;;7.70;9.00;;;;;;5071435;28;20407;-71
2022/12/27 12:09:43;;;;;;;330.67;305.40;;;7.70;9.00;;;;;;5071228;28;20410;-72
2022/12/27 12:12:39;;;;;;;343.30;319.40;;;7.60;9.50;;;;;;5071077;28;20888;-71
2022/12/27 12:15:33;;;;;;;388.30;361.63;;;7.50;9.40;;;;;;5071752;28;20462;-71
2022/12/27 12:18:14;;;;;;;327.50;303.73;;;7.50;9.80;;;;;;5071623;28;20475;-71
2022/12/27 12:20:57;;;;;;;396.27;368.97;;;7.40;9.80;;;;;;5071270;28;20825;-71
2022/12/27 12:24:00;;;;;;;510.87;475.40;;;7.40;7.80;;;;;;5071256;28;20773;-71
2022/12/27 12:26:45;;;;;;;313.20;290.70;;;7.40;8.30;;;;;;5071352;28;20424;-71
2022/12/27 12:29:33;;;;;;;311.03;287.67;;;7.50;8.80;;;;;;5071240;28;20467;-71
2022/12/27 12:32:20;;;;;;;476.70;444.27;;;7.70;8.10;;;;;;5070900;28;20466;-71
2022/12/27 12:35:19;;;;;;;375.57;351.10;;;7.90;7.70;;;;;;5071318;28;20405;-71
2022/12/27 12:38:01;;;;;;;494.23;459.70;;;8.10;7.20;;;;;;5074435;28;20782;-71
2022/12/27 12:41:03;;;;;;;243.93;227.00;;;8.50;6.40;;;;;;5074579;28;20530;-71
2022/12/27 12:44:18;;;;;;;239.20;221.57;;;8.50;6.60;;;;;;5074434;28;20436;-72
2022/12/27 12:47:02;;;;;;;375.03;348.00;;;8.40;7.00;;;;;;5065401;28;20413;-72
2022/12/27 12:49:51;;;;;;;528.60;489.77;;;8.30;6.60;;;;;;5074809;28;20477;-71
2022/12/27 12:52:45;;;;;;;434.07;403.70;;;8.30;7.70;;;;;;5074277;28;20460;-71
2022/12/27 12:55:23;;;;;;;457.53;426.03;;;8.40;8.40;;;;;;5074406;28;20417;-71
2022/12/27 12:58:20;;;;;;;241.13;224.00;;;8.30;7.60;;;;;;5074455;28;20407;-71
2022/12/27 13:01:18;;;;;;;221.70;204.43;;;8.00;8.00;;;;;;5074211;28;20424;-72
2022/12/27 13:04:08;;;;;;;245.93;228.17;;;7.90;8.70;;;;;;5070697;28;20462;-71
2022/12/27 13:06:48;;;;;;;430.00;398.93;;;7.90;8.70;;;;;;5074163;28;20399;-71
2022/12/27 13:09:36;;;;;;;429.47;398.90;;;7.80;8.60;;;;;;5072923;28;20455;-71
2022/12/27 13:12:15;;;;;;;336.47;312.27;;;7.70;8.80;;;;;;5073841;28;20826;-71
2022/12/27 13:14:57;;;;;;;431.90;401.07;;;7.70;9.00;;;;;;5074124;28;20412;-71
2022/12/27 13:17:46;;;;;;;340.33;317.03;;;7.60;8.90;;;;;;5074103;28;20512;-71
2022/12/27 13:20:49;;;;;;;544.13;507.30;;;7.60;8.90;;;;;;5074020;28;20429;-71
2022/12/27 13:23:45;;;;;;;420.53;388.23;;;7.60;8.40;;;;;;5073588;28;20919;-72
2022/12/27 13:26:23;;;;;;;324.70;301.57;;;7.50;8.30;;;;;;5070766;28;20475;-71
2022/12/27 13:29:16;;;;;;;288.40;269.23;;;7.50;8.40;;;;;;5073915;28;20398;-71
2022/12/27 13:31:55;;;;;;;354.30;328.70;;;7.40;8.80;;;;;;5073279;28;20462;-71
2022/12/27 13:34:40;;;;;;;415.80;387.70;;;7.40;8.80;;;;;;5074018;28;20402;-71
2022/12/27 13:37:14;;;;;;;237.53;220.07;;;7.40;8.80;;;;;;5073543;28;20412;-71
2022/12/27 13:40:16;;;;;;;419.13;388.53;;;7.40;8.80;;;;;;5073574;28;20910;-72
2022/12/27 13:43:10;;;;;;;478.07;442.53;;;7.40;9.50;;;;;;5069095;28;20458;-71
2022/12/27 13:45:48;;;;;;;286.63;265.83;;;7.30;8.90;;;;;;5073379;28;20440;-71
2022/12/27 13:48:43;;;;;;;289.80;269.50;;;7.30;9.70;;;;;;5072968;28;20432;-71
2022/12/27 13:51:48;;;;;;;224.60;207.37;;;7.20;10.00;;;;;;5073319;28;21063;-71
2022/12/27 13:54:37;;;;;;;543.20;504.47;;;7.10;9.90;;;;;;5062305;28;20519;-71
2022/12/27 13:57:11;;;;;;;181.83;168.27;;;7.00;9.70;;;;;;5073407;28;20412;-71
2022/12/27 14:00:14;;;;;;;506.57;470.63;;;7.10;10.10;;;;;;5073273;28;20491;-71
2022/12/27 14:03:13;;;;;;;326.63;302.17;;;7.10;10.30;;;;;;5073279;28;20962;-71
2022/12/27 14:06:16;;;;;;;486.67;451.07;;;7.00;10.70;;;;;;5073117;28;20414;-71
2022/12/27 14:09:03;;;;;;;537.03;499.90;;;6.90;10.70;;;;;;5073045;28;20465;-71
2022/12/27 14:11:43;;;;;;;394.53;367.50;;;6.90;11.00;;;;;;5072672;28;20466;-72
2022/12/27 14:14:14;;;;;;;334.77;312.10;;;6.90;11.20;;;;;;5073106;28;20868;-71
2022/12/27 14:17:05;;;;;;;433.07;404.07;;;7.00;11.30;;;;;;5072991;28;20413;-71
2022/12/27 14:20:18;;;;;;;171.53;158.23;;;6.90;11.80;;;;;;5072825;28;20423;-71
2022/12/27 14:23:18;;;;;;;263.67;245.33;;;7.00;11.90;;;;;;5050074;28;20815;-71
2022/12/27 14:26:15;;;;;;;422.83;393.87;;;6.80;12.00;;;;;;5036976;28;20487;-72
2022/12/27 14:29:02;;;;;;;663.70;618.13;;;6.70;12.20;;;;;;5075033;28;20455;-71
2022/12/27 14:31:59;;;;;;;219.43;204.13;;;6.60;11.70;;;;;;5091544;28;20439;-71
2022/12/27 14:34:30;;;;;;;168.57;155.83;;;6.60;12.60;;;;;;5073312;28;20420;-71
2022/12/27 14:37:19;;;;;;;403.70;375.77;;;6.40;12.50;;;;;;5072652;28;20943;-71